Time,TemperatureF,DewpointF,PressureIn,WindDirection,WindDirectionDegrees,WindSpeedMPH,WindSpeedGustMPH,Humidity,HourlyPrecipIn,Conditions,Clouds,dailyrainin,SoftwareType,DateUTC
2013-02-22 00:00:00,26.5,15.1,30.39,NNW,338,3.1,5.6,62,0.00,,,0.00,WUHU216HW,2013-02-22 05:00:00,
2013-02-22 00:05:00,26.5,15.1,30.39,NNW,338,3.8,4.0,62,0.00,,,0.00,WUHU216HW,2013-02-22 05:05:00,
2013-02-22 00:10:00,26.3,14.9,30.39,NNW,338,3.4,7.8,62,0.00,,,0.00,WUHU216HW,2013-02-22 05:10:00,
2013-02-22 00:15:00,26.3,14.9,30.39,NNW,338,1.8,7.8,62,0.00,,,0.00,WUHU216HW,2013-02-22 05:15:00,
2013-02-22 00:20:00,26.3,14.9,30.38,North,0,5.4,5.4,62,0.00,,,0.00,WUHU216HW,2013-02-22 05:20:00,
2013-02-22 00:25:00,26.3,14.9,30.38,NNW,338,1.8,5.4,62,0.00,,,0.00,WUHU216HW,2013-02-22 05:25:00,
2013-02-22 00:30:00,26.3,14.9,30.38,NNW,338,1.8,4.3,62,0.00,,,0.00,WUHU216HW,2013-02-22 05:30:00,
2013-02-22 00:53:00,25.9,14.7,30.40,NNW,338,0.2,0.2,62,0.00,,,0.00,WUHU216HW,2013-02-22 05:53:00,
2013-02-22 00:58:00,25.9,14.7,30.40,North,0,0.4,0.7,62,0.00,,,0.00,WUHU216HW,2013-02-22 05:58:00,
2013-02-22 01:03:00,25.9,14.7,30.40,NNW,338,2.0,2.0,62,0.00,,,0.00,WUHU216HW,2013-02-22 06:03:00,
2013-02-22 01:08:00,25.9,15.0,30.40,NNW,338,2.5,2.5,63,0.00,,,0.00,WUHU216HW,2013-02-22 06:08:00,
2013-02-22 01:13:00,25.9,14.7,30.40,North,0,1.1,2.5,62,0.00,,,0.00,WUHU216HW,2013-02-22 06:13:00,
2013-02-22 01:18:00,25.7,14.9,30.39,NNW,338,2.5,4.0,63,0.00,,,0.00,WUHU216HW,2013-02-22 06:18:00,
2013-02-22 01:23:00,25.6,14.7,30.40,NNW,338,1.3,4.0,63,0.00,,,0.00,WUHU216HW,2013-02-22 06:23:00,
2013-02-22 01:28:00,25.6,14.7,30.40,WSW,248,0.4,2.5,63,0.00,,,0.00,WUHU216HW,2013-02-22 06:28:00,
2013-02-22 01:33:00,25.6,14.7,30.40,NNW,338,0.9,2.5,63,0.00,,,0.00,WUHU216HW,2013-02-22 06:33:00,
2013-02-22 01:38:00,25.4,14.5,30.39,NW,315,0.4,1.1,63,0.00,,,0.00,WUHU216HW,2013-02-22 06:38:00,
2013-02-22 01:43:00,25.4,14.5,30.40,West,270,0.7,1.1,63,0.00,,,0.00,WUHU216HW,2013-02-22 06:43:00,
2013-02-22 01:48:00,25.4,14.5,30.41,West,270,1.8,1.8,63,0.00,,,0.00,WUHU216HW,2013-02-22 06:48:00,
2013-02-22 01:53:00,25.2,14.7,30.41,West,270,1.3,2.5,64,0.00,,,0.00,WUHU216HW,2013-02-22 06:53:00,
2013-02-22 01:58:00,25.0,14.5,30.41,NNE,23,2.2,2.7,64,0.00,,,0.00,WUHU216HW,2013-02-22 06:58:00,
2013-02-22 02:03:00,24.8,14.3,30.41,WNW,293,1.1,2.9,64,0.00,,,0.00,WUHU216HW,2013-02-22 07:03:00,
2013-02-22 02:08:00,24.8,14.3,30.42,NW,315,1.8,2.9,64,0.00,,,0.00,WUHU216HW,2013-02-22 07:08:00,
2013-02-22 02:13:00,24.8,14.3,30.42,NNW,338,2.9,2.9,64,0.00,,,0.00,WUHU216HW,2013-02-22 07:13:00,
2013-02-22 02:18:00,24.8,14.3,30.42,NNW,338,1.6,2.9,64,0.00,,,0.00,WUHU216HW,2013-02-22 07:18:00,
2013-02-22 02:23:00,24.8,14.7,30.41,NNW,338,1.1,2.2,65,0.00,,,0.00,WUHU216HW,2013-02-22 07:23:00,
2013-02-22 02:28:00,24.8,14.7,30.42,NNW,338,1.1,2.7,65,0.00,,,0.00,WUHU216HW,2013-02-22 07:28:00,
2013-02-22 02:33:00,24.8,14.7,30.42,NNW,338,1.1,2.7,65,0.00,,,0.00,WUHU216HW,2013-02-22 07:33:00,
2013-02-22 02:38:00,24.8,14.7,30.41,NNW,338,1.1,2.7,65,0.00,,,0.00,WUHU216HW,2013-02-22 07:38:00,
2013-02-22 02:43:00,24.8,15.0,30.43,West,270,0.4,2.7,66,0.00,,,0.00,WUHU216HW,2013-02-22 07:43:00,
2013-02-22 02:48:00,24.8,14.7,30.42,NNW,338,1.8,2.5,65,0.00,,,0.00,WUHU216HW,2013-02-22 07:48:00,
2013-02-22 02:53:00,24.8,15.0,30.42,NW,315,1.1,2.9,66,0.00,,,0.00,WUHU216HW,2013-02-22 07:53:00,
2013-02-22 02:58:00,24.8,15.4,30.42,NNW,338,5.1,5.1,67,0.00,,,0.00,WUHU216HW,2013-02-22 07:58:00,
2013-02-22 03:03:00,24.8,15.0,30.42,North,0,1.1,5.1,66,0.00,,,0.00,WUHU216HW,2013-02-22 08:03:00,
2013-02-22 03:08:00,25.0,15.2,30.42,North,0,2.2,4.5,66,0.00,,,0.00,WUHU216HW,2013-02-22 08:08:00,
2013-02-22 03:13:00,25.0,15.2,30.42,NNW,338,1.3,4.0,66,0.00,,,0.00,WUHU216HW,2013-02-22 08:13:00,
2013-02-22 03:18:00,25.0,15.2,30.43,North,0,1.6,4.0,66,0.00,,,0.00,WUHU216HW,2013-02-22 08:18:00,
2013-02-22 03:23:00,25.0,15.2,30.42,North,0,0.9,2.9,66,0.00,,,0.00,WUHU216HW,2013-02-22 08:23:00,
2013-02-22 03:28:00,24.8,15.0,30.42,NW,315,1.1,2.0,66,0.00,,,0.00,WUHU216HW,2013-02-22 08:28:00,
2013-02-22 03:33:00,24.8,15.0,30.43,North,0,0.7,2.0,66,0.00,,,0.00,WUHU216HW,2013-02-22 08:33:00,
2013-02-22 03:38:00,24.8,15.0,30.43,NNW,338,3.4,3.4,66,0.00,,,0.00,WUHU216HW,2013-02-22 08:38:00,
2013-02-22 03:43:00,24.8,15.4,30.42,NNW,338,0.7,3.4,67,0.00,,,0.00,WUHU216HW,2013-02-22 08:43:00,
2013-02-22 03:48:00,24.8,15.4,30.43,North,0,1.3,2.0,67,0.00,,,0.00,WUHU216HW,2013-02-22 08:48:00,
2013-02-22 03:53:00,24.8,15.4,30.43,NW,315,1.1,2.2,67,0.00,,,0.00,WUHU216HW,2013-02-22 08:53:00,
2013-02-22 03:58:00,25.0,15.8,30.42,North,0,2.9,3.4,68,0.00,,,0.00,WUHU216HW,2013-02-22 08:58:00,
2013-02-22 04:03:00,25.2,16.4,30.43,NW,315,2.2,3.6,69,0.00,,,0.00,WUHU216HW,2013-02-22 09:03:00,
2013-02-22 04:08:00,25.2,16.0,30.42,NNW,338,1.1,3.6,68,0.00,,,0.00,WUHU216HW,2013-02-22 09:08:00,
2013-02-22 04:13:00,25.2,16.0,30.43,NNW,338,1.6,2.0,68,0.00,,,0.00,WUHU216HW,2013-02-22 09:13:00,
2013-02-22 04:18:00,25.4,16.2,30.44,NW,315,1.3,2.0,68,0.00,,,0.00,WUHU216HW,2013-02-22 09:18:00,
2013-02-22 04:23:00,25.4,16.2,30.44,NW,315,1.8,2.0,68,0.00,,,0.00,WUHU216HW,2013-02-22 09:23:00,
2013-02-22 04:28:00,25.4,16.2,30.44,NW,315,1.6,1.8,68,0.00,,,0.00,WUHU216HW,2013-02-22 09:28:00,
2013-02-22 04:33:00,25.2,16.0,30.44,NNW,338,1.1,1.8,68,0.00,,,0.00,WUHU216HW,2013-02-22 09:33:00,
2013-02-22 04:38:00,25.4,16.6,30.45,NNW,338,0.4,1.6,69,0.00,,,0.00,WUHU216HW,2013-02-22 09:38:00,
2013-02-22 04:43:00,25.4,16.2,30.44,NW,315,0.0,1.3,68,0.00,,,0.00,WUHU216HW,2013-02-22 09:43:00,
2013-02-22 04:48:00,25.4,16.2,30.45,NNW,338,1.1,1.8,68,0.00,,,0.00,WUHU216HW,2013-02-22 09:48:00,
2013-02-22 04:53:00,25.6,16.4,30.44,North,0,2.5,2.5,68,0.00,,,0.00,WUHU216HW,2013-02-22 09:53:00,
2013-02-22 04:58:00,25.6,16.7,30.45,NW,315,3.1,3.1,69,0.00,,,0.00,WUHU216HW,2013-02-22 09:58:00,
2013-02-22 05:03:00,25.7,16.9,30.44,NW,315,3.1,3.1,69,0.00,,,0.00,WUHU216HW,2013-02-22 10:03:00,
2013-02-22 05:08:00,25.9,17.1,30.45,NNW,338,1.1,3.1,69,0.00,,,0.00,WUHU216HW,2013-02-22 10:08:00,
2013-02-22 05:13:00,25.7,16.6,30.46,NNW,338,0.7,2.5,68,0.00,,,0.00,WUHU216HW,2013-02-22 10:13:00,
2013-02-22 05:18:00,25.7,16.6,30.45,NNW,338,2.9,2.9,68,0.00,,,0.00,WUHU216HW,2013-02-22 10:18:00,
2013-02-22 05:23:00,25.7,16.9,30.45,NNW,338,0.9,2.9,69,0.00,,,0.00,WUHU216HW,2013-02-22 10:23:00,
2013-02-22 05:29:00,25.7,16.6,30.45,NNW,338,0.4,1.6,68,0.00,,,0.00,WUHU216HW,2013-02-22 10:29:00,
2013-02-22 05:34:00,25.9,16.7,30.45,North,0,0.0,1.3,68,0.00,,,0.00,WUHU216HW,2013-02-22 10:34:00,
2013-02-22 05:39:00,25.7,16.6,30.47,NW,315,0.9,1.8,68,0.00,,,0.00,WUHU216HW,2013-02-22 10:39:00,
2013-02-22 05:44:00,25.7,16.6,30.47,NNW,338,0.4,1.8,68,0.00,,,0.00,WUHU216HW,2013-02-22 10:44:00,
2013-02-22 05:49:00,25.7,16.9,30.48,NNW,338,0.2,1.1,69,0.00,,,0.00,WUHU216HW,2013-02-22 10:49:00,
2013-02-22 05:54:00,25.6,16.7,30.48,North,0,0.0,1.1,69,0.00,,,0.00,WUHU216HW,2013-02-22 10:54:00,
2013-02-22 05:59:00,25.6,16.7,30.48,NNW,338,0.4,0.4,69,0.00,,,0.00,WUHU216HW,2013-02-22 10:59:00,
2013-02-22 06:04:00,25.6,16.7,30.49,WNW,293,1.1,1.1,69,0.00,,,0.00,WUHU216HW,2013-02-22 11:04:00,
2013-02-22 06:09:00,25.4,16.6,30.49,West,270,0.7,1.1,69,0.00,,,0.00,WUHU216HW,2013-02-22 11:09:00,
2013-02-22 06:14:00,25.2,16.4,30.49,WNW,293,0.4,2.2,69,0.00,,,0.00,WUHU216HW,2013-02-22 11:14:00,
2013-02-22 06:19:00,25.2,16.4,30.49,North,0,0.0,2.2,69,0.00,,,0.00,WUHU216HW,2013-02-22 11:19:00,
2013-02-22 06:24:00,25.2,16.4,30.49,West,270,0.7,0.7,69,0.00,,,0.00,WUHU216HW,2013-02-22 11:24:00,
2013-02-22 06:29:00,25.2,16.7,30.50,NW,315,0.9,0.9,70,0.00,,,0.00,WUHU216HW,2013-02-22 11:29:00,
2013-02-22 06:34:00,25.4,16.9,30.50,West,270,0.7,0.9,70,0.00,,,0.00,WUHU216HW,2013-02-22 11:34:00,
2013-02-22 06:39:00,25.2,16.7,30.50,WSW,248,1.1,1.1,70,0.00,,,0.00,WUHU216HW,2013-02-22 11:39:00,
2013-02-22 06:44:00,25.0,16.6,30.50,West,270,0.9,1.1,70,0.00,,,0.00,WUHU216HW,2013-02-22 11:44:00,
2013-02-22 06:49:00,24.8,16.0,30.50,WNW,293,0.4,3.4,69,0.00,,,0.00,WUHU216HW,2013-02-22 11:49:00,
2013-02-22 06:54:00,24.8,16.0,30.50,NW,315,1.1,3.4,69,0.00,,,0.00,WUHU216HW,2013-02-22 11:54:00,
2013-02-22 06:59:00,24.8,16.0,30.49,North,0,2.2,2.5,69,0.00,,,0.00,WUHU216HW,2013-02-22 11:59:00,
2013-02-22 07:04:00,24.8,16.4,30.49,North,0,0.9,2.5,70,0.00,,,0.00,WUHU216HW,2013-02-22 12:04:00,
2013-02-22 07:09:00,24.8,16.4,30.49,NNW,338,1.8,2.5,70,0.00,,,0.00,WUHU216HW,2013-02-22 12:09:00,
2013-02-22 07:14:00,25.0,16.6,30.50,NNW,338,0.2,2.0,70,0.00,,,0.00,WUHU216HW,2013-02-22 12:14:00,
2013-02-22 07:19:00,25.2,16.7,30.50,NNW,338,0.9,1.3,70,0.00,,,0.00,WUHU216HW,2013-02-22 12:19:00,
2013-02-22 07:24:00,25.4,16.9,30.50,NNW,338,0.7,1.8,70,0.00,,,0.00,WUHU216HW,2013-02-22 12:24:00,
2013-02-22 07:29:00,25.6,17.1,30.51,NNW,338,1.1,1.8,70,0.00,,,0.00,WUHU216HW,2013-02-22 12:29:00,
2013-02-22 07:34:00,25.6,17.1,30.51,NNW,338,0.4,1.1,70,0.00,,,0.00,WUHU216HW,2013-02-22 12:34:00,
2013-02-22 07:39:00,25.7,17.3,30.51,NNW,338,0.0,1.1,70,0.00,,,0.00,WUHU216HW,2013-02-22 12:39:00,
2013-02-22 07:49:00,26.3,17.8,30.51,NNW,338,0.2,1.3,70,0.00,,,0.00,WUHU216HW,2013-02-22 12:49:00,
2013-02-22 07:54:00,26.5,18.0,30.51,NNW,338,0.4,0.4,70,0.00,,,0.00,WUHU216HW,2013-02-22 12:54:00,
2013-02-22 07:59:00,26.8,18.4,30.52,WNW,293,0.4,1.1,70,0.00,,,0.00,WUHU216HW,2013-02-22 12:59:00,
2013-02-22 08:04:00,27.0,18.5,30.52,NW,315,0.9,1.1,70,0.00,,,0.00,WUHU216HW,2013-02-22 13:04:00,
2013-02-22 08:09:00,27.2,18.7,30.52,NW,315,1.3,2.5,70,0.00,,,0.00,WUHU216HW,2013-02-22 13:09:00,
2013-02-22 08:14:00,27.4,18.9,30.52,NW,315,0.4,2.5,70,0.00,,,0.00,WUHU216HW,2013-02-22 13:14:00,
2013-02-22 08:19:00,27.7,19.3,30.51,North,0,2.2,2.2,70,0.00,,,0.00,WUHU216HW,2013-02-22 13:19:00,
2013-02-22 08:24:00,28.1,19.6,30.51,North,0,2.7,2.7,70,0.00,,,0.00,WUHU216HW,2013-02-22 13:24:00,
2013-02-22 08:29:00,28.4,20.0,30.51,North,0,0.2,4.0,70,0.00,,,0.00,WUHU216HW,2013-02-22 13:29:00,
2013-02-22 08:34:00,28.6,20.2,30.51,NNE,23,1.1,4.0,70,0.00,,,0.00,WUHU216HW,2013-02-22 13:34:00,
2013-02-22 08:39:00,28.8,20.4,30.51,North,0,0.4,1.6,70,0.00,,,0.00,WUHU216HW,2013-02-22 13:39:00,
2013-02-22 08:44:00,29.2,20.6,30.51,NNW,338,0.9,1.6,70,0.00,,,0.00,WUHU216HW,2013-02-22 13:44:00,
2013-02-22 08:49:00,29.5,21.0,30.51,NNW,338,1.1,1.1,70,0.00,,,0.00,WUHU216HW,2013-02-22 13:49:00,
2013-02-22 08:54:00,29.9,21.2,30.51,NNE,23,1.1,1.3,70,0.00,,,0.00,WUHU216HW,2013-02-22 13:54:00,
2013-02-22 08:59:00,30.4,21.8,30.51,NNW,338,1.8,1.8,70,0.00,,,0.00,WUHU216HW,2013-02-22 13:59:00,
2013-02-22 09:04:00,30.8,22.1,30.51,North,0,0.4,1.8,70,0.00,,,0.00,WUHU216HW,2013-02-22 14:04:00,
2013-02-22 09:09:00,31.3,22.3,30.52,NNE,23,0.7,1.8,69,0.00,,,0.00,WUHU216HW,2013-02-22 14:09:00,
2013-02-22 09:14:00,31.7,22.7,30.52,East,90,0.4,3.1,69,0.00,,,0.00,WUHU216HW,2013-02-22 14:14:00,
2013-02-22 09:19:00,32.2,23.2,30.51,NE,45,3.6,3.6,69,0.00,,,0.00,WUHU216HW,2013-02-22 14:19:00,
2013-02-22 09:24:00,32.9,23.9,30.52,NW,315,1.6,3.6,69,0.00,,,0.00,WUHU216HW,2013-02-22 14:24:00,
2013-02-22 09:29:00,33.5,24.7,30.51,East,90,1.8,4.5,70,0.00,,,0.00,WUHU216HW,2013-02-22 14:29:00,
2013-02-22 09:34:00,33.8,24.7,30.51,NNE,23,2.5,7.6,69,0.00,,,0.00,WUHU216HW,2013-02-22 14:34:00,
2013-02-22 09:39:00,34.2,25.0,30.51,SSE,158,1.3,7.6,69,0.00,,,0.00,WUHU216HW,2013-02-22 14:39:00,
2013-02-22 09:44:00,34.7,25.6,30.52,North,0,4.0,4.0,69,0.00,,,0.00,WUHU216HW,2013-02-22 14:44:00,
2013-02-22 09:49:00,34.9,25.4,30.51,NE,45,5.4,6.3,68,0.00,,,0.00,WUHU216HW,2013-02-22 14:49:00,
2013-02-22 09:54:00,35.3,25.7,30.51,ESE,113,3.6,6.3,68,0.00,,,0.00,WUHU216HW,2013-02-22 14:54:00,
2013-02-22 09:59:00,35.5,25.6,30.52,North,0,2.0,6.3,67,0.00,,,0.00,WUHU216HW,2013-02-22 14:59:00,
2013-02-22 10:04:00,35.6,25.7,30.51,NE,45,4.7,6.3,67,0.00,,,0.00,WUHU216HW,2013-02-22 15:04:00,
2013-02-22 10:09:00,35.6,25.7,30.51,NE,45,1.1,7.8,67,0.00,,,0.00,WUHU216HW,2013-02-22 15:09:00,
2013-02-22 10:14:00,35.6,25.7,30.51,ENE,68,0.4,7.8,67,0.00,,,0.00,WUHU216HW,2013-02-22 15:14:00,
2013-02-22 10:19:00,35.6,25.7,30.50,NE,45,4.5,5.4,67,0.00,,,0.00,WUHU216HW,2013-02-22 15:19:00,
2013-02-22 10:24:00,36.0,26.1,30.50,ESE,113,5.4,5.4,67,0.00,,,0.00,WUHU216HW,2013-02-22 15:24:00,
2013-02-22 10:29:00,36.4,26.5,30.50,ENE,68,1.8,6.7,67,0.00,,,0.00,WUHU216HW,2013-02-22 15:29:00,
2013-02-22 10:34:00,36.5,26.7,30.50,SE,135,4.5,7.2,67,0.00,,,0.00,WUHU216HW,2013-02-22 15:34:00,
2013-02-22 10:39:00,36.4,26.1,30.51,NE,45,1.1,7.2,66,0.00,,,0.00,WUHU216HW,2013-02-22 15:39:00,
2013-02-22 10:44:00,36.7,26.8,30.51,ESE,113,1.3,6.7,67,0.00,,,0.00,WUHU216HW,2013-02-22 15:44:00,
2013-02-22 10:49:00,37.1,26.7,30.50,SE,135,3.8,5.6,66,0.00,,,0.00,WUHU216HW,2013-02-22 15:49:00,
2013-02-22 10:54:00,37.1,26.7,30.50,ENE,68,4.0,6.0,66,0.00,,,0.00,WUHU216HW,2013-02-22 15:54:00,
2013-02-22 10:59:00,37.4,27.1,30.50,ESE,113,2.7,6.0,66,0.00,,,0.00,WUHU216HW,2013-02-22 15:59:00,
2013-02-22 11:04:00,37.8,27.5,30.50,NNE,23,1.1,3.8,66,0.00,,,0.00,WUHU216HW,2013-02-22 16:04:00,
2013-02-22 11:09:00,38.2,27.7,30.50,NE,45,4.7,5.1,66,0.00,,,0.00,WUHU216HW,2013-02-22 16:09:00,
2013-02-22 11:14:00,38.5,27.7,30.50,ESE,113,1.8,5.1,65,0.00,,,0.00,WUHU216HW,2013-02-22 16:14:00,
2013-02-22 11:19:00,38.5,27.7,30.51,SE,135,2.2,6.5,65,0.00,,,0.00,WUHU216HW,2013-02-22 16:19:00,
2013-02-22 11:24:00,38.7,27.9,30.51,NNW,338,4.0,6.5,65,0.00,,,0.00,WUHU216HW,2013-02-22 16:24:00,
2013-02-22 11:29:00,38.5,27.4,30.50,SE,135,2.7,5.4,64,0.00,,,0.00,WUHU216HW,2013-02-22 16:29:00,
2013-02-22 11:34:00,38.5,27.4,30.50,NE,45,1.6,2.7,64,0.00,,,0.00,WUHU216HW,2013-02-22 16:34:00,
2013-02-22 11:39:00,38.7,27.5,30.50,ENE,68,4.7,4.7,64,0.00,,,0.00,WUHU216HW,2013-02-22 16:39:00,
2013-02-22 11:44:00,38.7,27.5,30.50,East,90,1.1,4.7,64,0.00,,,0.00,WUHU216HW,2013-02-22 16:44:00,
2013-02-22 11:49:00,38.5,27.4,30.50,ENE,68,1.3,6.5,64,0.00,,,0.00,WUHU216HW,2013-02-22 16:49:00,
2013-02-22 11:54:00,38.5,27.4,30.50,SE,135,2.5,6.5,64,0.00,,,0.00,WUHU216HW,2013-02-22 16:54:00,
2013-02-22 11:59:00,38.3,27.2,30.50,ESE,113,0.9,4.9,64,0.00,,,0.00,WUHU216HW,2013-02-22 16:59:00,
2013-02-22 12:04:00,38.3,27.2,30.50,East,90,3.4,4.9,64,0.00,,,0.00,WUHU216HW,2013-02-22 17:04:00,
2013-02-22 12:09:00,38.5,27.4,30.50,North,0,4.0,4.9,64,0.00,,,0.00,WUHU216HW,2013-02-22 17:09:00,
2013-02-22 12:14:00,38.5,27.4,30.50,NNE,23,0.2,4.9,64,0.00,,,0.00,WUHU216HW,2013-02-22 17:14:00,
2013-02-22 12:19:00,38.9,28.0,30.50,ESE,113,0.2,4.9,65,0.00,,,0.00,WUHU216HW,2013-02-22 17:19:00,
2013-02-22 12:24:00,39.2,28.4,30.50,SE,135,0.4,2.2,65,0.00,,,0.00,WUHU216HW,2013-02-22 17:24:00,
2013-02-22 12:29:00,39.8,28.5,30.49,ESE,113,4.0,4.0,64,0.00,,,0.00,WUHU216HW,2013-02-22 17:29:00,
2013-02-22 12:34:00,40.0,29.1,30.49,NNE,23,2.0,4.0,65,0.00,,,0.00,WUHU216HW,2013-02-22 17:34:00,
2013-02-22 12:39:00,40.1,29.3,30.49,SE,135,2.5,4.0,65,0.00,,,0.00,WUHU216HW,2013-02-22 17:39:00,
2013-02-22 12:44:00,40.3,29.1,30.49,East,90,1.3,4.0,64,0.00,,,0.00,WUHU216HW,2013-02-22 17:44:00,
2013-02-22 12:49:00,40.5,29.3,30.48,East,90,1.8,4.0,64,0.00,,,0.00,WUHU216HW,2013-02-22 17:49:00,
2013-02-22 12:54:00,40.5,29.3,30.49,NE,45,0.4,3.4,64,0.00,,,0.00,WUHU216HW,2013-02-22 17:54:00,
2013-02-22 12:59:00,40.5,29.3,30.48,East,90,0.4,3.4,64,0.00,,,0.00,WUHU216HW,2013-02-22 17:59:00,
2013-02-22 13:04:00,40.5,29.3,30.48,ESE,113,1.1,3.6,64,0.00,,,0.00,WUHU216HW,2013-02-22 18:04:00,
2013-02-22 13:09:00,40.3,29.1,30.47,ENE,68,1.6,5.1,64,0.00,,,0.00,WUHU216HW,2013-02-22 18:09:00,
2013-02-22 13:14:00,40.3,29.1,30.47,NE,45,1.8,5.1,64,0.00,,,0.00,WUHU216HW,2013-02-22 18:14:00,
2013-02-22 13:19:00,40.1,28.9,30.47,ENE,68,3.4,3.6,64,0.00,,,0.00,WUHU216HW,2013-02-22 18:19:00,
2013-02-22 13:24:00,40.0,28.7,30.46,SE,135,2.5,3.4,64,0.00,,,0.00,WUHU216HW,2013-02-22 18:24:00,
2013-02-22 13:29:00,40.0,28.7,30.46,NE,45,3.4,3.8,64,0.00,,,0.00,WUHU216HW,2013-02-22 18:29:00,
2013-02-22 13:34:00,40.0,28.7,30.46,SE,135,2.9,5.8,64,0.00,,,0.00,WUHU216HW,2013-02-22 18:34:00,
2013-02-22 13:39:00,40.0,28.7,30.46,SSE,158,2.9,5.8,64,0.00,,,0.00,WUHU216HW,2013-02-22 18:39:00,
2013-02-22 13:44:00,40.0,28.7,30.46,NNE,23,3.8,5.4,64,0.00,,,0.00,WUHU216HW,2013-02-22 18:44:00,
2013-02-22 13:49:00,40.0,29.1,30.46,ESE,113,1.1,5.4,65,0.00,,,0.00,WUHU216HW,2013-02-22 18:49:00,
2013-02-22 13:54:00,40.1,29.3,30.46,NE,45,1.1,4.7,65,0.00,,,0.00,WUHU216HW,2013-02-22 18:54:00,
2013-02-22 13:59:00,40.1,29.3,30.46,NE,45,0.7,4.9,65,0.00,,,0.00,WUHU216HW,2013-02-22 18:59:00,
2013-02-22 14:04:00,40.1,29.3,30.45,SSE,158,2.7,4.9,65,0.00,,,0.00,WUHU216HW,2013-02-22 19:04:00,
2013-02-22 14:09:00,40.0,29.1,30.45,ESE,113,2.9,2.9,65,0.00,,,0.00,WUHU216HW,2013-02-22 19:09:00,
2013-02-22 14:14:00,40.0,28.7,30.45,SE,135,1.8,2.9,64,0.00,,,0.00,WUHU216HW,2013-02-22 19:14:00,
2013-02-22 14:19:00,40.0,29.4,30.45,ESE,113,2.5,4.7,66,0.00,,,0.00,WUHU216HW,2013-02-22 19:19:00,
2013-02-22 14:24:00,40.0,29.1,30.45,ESE,113,2.5,4.7,65,0.00,,,0.00,WUHU216HW,2013-02-22 19:24:00,
2013-02-22 14:29:00,40.0,29.1,30.45,SE,135,0.7,2.7,65,0.00,,,0.00,WUHU216HW,2013-02-22 19:29:00,
2013-02-22 14:34:00,40.0,29.4,30.45,ESE,113,2.0,2.5,66,0.00,,,0.00,WUHU216HW,2013-02-22 19:34:00,
2013-02-22 14:39:00,40.0,29.1,30.45,ESE,113,1.3,2.5,65,0.00,,,0.00,WUHU216HW,2013-02-22 19:39:00,
2013-02-22 14:44:00,39.8,28.9,30.44,SE,135,0.4,1.8,65,0.00,,,0.00,WUHU216HW,2013-02-22 19:44:00,
2013-02-22 14:49:00,39.8,28.9,30.44,SE,135,2.7,2.7,65,0.00,,,0.00,WUHU216HW,2013-02-22 19:49:00,
2013-02-22 14:54:00,39.6,28.7,30.44,South,180,1.6,2.7,65,0.00,,,0.00,WUHU216HW,2013-02-22 19:54:00,
2013-02-22 14:59:00,39.6,29.1,30.44,SE,135,1.1,1.6,66,0.00,,,0.00,WUHU216HW,2013-02-22 19:59:00,
2013-02-22 15:04:00,39.6,29.1,30.44,SSE,158,1.1,2.5,66,0.00,,,0.00,WUHU216HW,2013-02-22 20:04:00,
2013-02-22 15:11:00,39.6,29.1,30.44,ESE,113,0.7,3.4,66,0.00,,,0.00,WUHU216HW,2013-02-22 20:11:00,
2013-02-22 15:18:00,39.8,29.3,30.44,East,90,2.0,2.2,66,0.00,,,0.00,WUHU216HW,2013-02-22 20:18:00,
2013-02-22 15:23:00,39.8,29.3,30.44,NE,45,0.7,2.2,66,0.00,,,0.00,WUHU216HW,2013-02-22 20:23:00,
2013-02-22 15:28:00,39.6,29.1,30.45,NE,45,1.6,2.9,66,0.00,,,0.00,WUHU216HW,2013-02-22 20:28:00,
2013-02-22 15:33:00,39.6,29.4,30.45,ESE,113,0.4,2.9,67,0.00,,,0.00,WUHU216HW,2013-02-22 20:33:00,
2013-02-22 15:38:00,39.6,29.4,30.45,ESE,113,1.1,1.3,67,0.00,,,0.00,WUHU216HW,2013-02-22 20:38:00,
2013-02-22 15:43:00,39.4,29.3,30.45,ESE,113,0.4,2.7,67,0.00,,,0.00,WUHU216HW,2013-02-22 20:43:00,
2013-02-22 15:48:00,39.4,29.3,30.45,East,90,1.3,2.7,67,0.00,,,0.00,WUHU216HW,2013-02-22 20:48:00,
2013-02-22 15:53:00,39.2,29.1,30.45,ESE,113,0.4,1.6,67,0.00,,,0.00,WUHU216HW,2013-02-22 20:53:00,
2013-02-22 15:58:00,39.2,29.1,30.46,SE,135,0.2,2.5,67,0.00,,,0.00,WUHU216HW,2013-02-22 20:58:00,
2013-02-22 16:03:00,39.2,29.1,30.45,ESE,113,1.3,2.5,67,0.00,,,0.00,WUHU216HW,2013-02-22 21:03:00,
2013-02-22 16:08:00,39.1,29.0,30.45,SE,135,1.1,2.0,67,0.00,,,0.00,WUHU216HW,2013-02-22 21:08:00,
2013-02-22 16:13:00,39.1,29.4,30.45,East,90,0.4,2.0,68,0.00,,,0.00,WUHU216HW,2013-02-22 21:13:00,
2013-02-22 16:18:00,39.1,29.4,30.45,SSE,158,0.0,1.1,68,0.00,,,0.00,WUHU216HW,2013-02-22 21:18:00,
2013-02-22 16:23:00,39.1,29.4,30.45,ESE,113,1.1,1.3,68,0.00,,,0.00,WUHU216HW,2013-02-22 21:23:00,
2013-02-22 16:28:00,39.1,29.4,30.45,ESE,113,0.7,1.3,68,0.00,,,0.00,WUHU216HW,2013-02-22 21:28:00,
2013-02-22 16:33:00,39.1,29.4,30.45,ESE,113,0.9,2.7,68,0.00,,,0.00,WUHU216HW,2013-02-22 21:33:00,
2013-02-22 16:38:00,38.9,29.2,30.45,SE,135,0.4,2.9,68,0.00,,,0.00,WUHU216HW,2013-02-22 21:38:00,
2013-02-22 16:43:00,38.9,29.5,30.45,SSE,158,0.7,3.1,69,0.00,,,0.00,WUHU216HW,2013-02-22 21:43:00,
2013-02-22 16:48:00,38.7,29.3,30.45,SE,135,0.7,3.1,69,0.00,,,0.00,WUHU216HW,2013-02-22 21:48:00,
2013-02-22 16:53:00,38.7,29.3,30.46,NNW,338,0.9,1.8,69,0.00,,,0.00,WUHU216HW,2013-02-22 21:53:00,
2013-02-22 16:58:00,38.5,29.3,30.45,SE,135,1.8,1.8,69,0.00,,,0.00,WUHU216HW,2013-02-22 21:58:00,
2013-02-22 17:03:00,38.5,29.3,30.45,East,90,0.2,1.8,69,0.00,,,0.00,WUHU216HW,2013-02-22 22:03:00,
2013-02-22 17:08:00,38.5,29.6,30.45,ESE,113,1.1,1.6,70,0.00,,,0.00,WUHU216HW,2013-02-22 22:08:00,
2013-02-22 17:13:00,38.5,29.6,30.45,SE,135,2.2,2.2,70,0.00,,,0.00,WUHU216HW,2013-02-22 22:13:00,
2013-02-22 17:18:00,38.5,29.6,30.45,SE,135,0.9,2.2,70,0.00,,,0.00,WUHU216HW,2013-02-22 22:18:00,
2013-02-22 17:23:00,38.5,29.6,30.44,ENE,68,0.0,1.8,70,0.00,,,0.00,WUHU216HW,2013-02-22 22:23:00,
2013-02-22 17:28:00,38.5,29.6,30.45,SE,135,0.4,1.8,70,0.00,,,0.00,WUHU216HW,2013-02-22 22:28:00,
2013-02-22 17:33:00,38.3,29.8,30.45,SSE,158,0.0,1.3,71,0.00,,,0.00,WUHU216HW,2013-02-22 22:33:00,
2013-02-22 17:38:00,38.3,29.8,30.45,SE,135,1.3,1.3,71,0.00,,,0.00,WUHU216HW,2013-02-22 22:38:00,
2013-02-22 17:43:00,38.3,29.8,30.45,SE,135,0.2,2.2,71,0.00,,,0.00,WUHU216HW,2013-02-22 22:43:00,
2013-02-22 17:48:00,38.3,29.8,30.45,ESE,113,0.2,2.2,71,0.00,,,0.00,WUHU216HW,2013-02-22 22:48:00,
2013-02-22 17:53:00,38.3,29.8,30.45,ENE,68,2.0,3.4,71,0.00,,,0.00,WUHU216HW,2013-02-22 22:53:00,
2013-02-22 17:58:00,38.3,29.8,30.45,North,0,0.4,3.4,71,0.00,,,0.00,WUHU216HW,2013-02-22 22:58:00,
2013-02-22 18:00:00,38.3,29.8,30.45,ESE,113,0.4,0.4,71,0.00,,,0.00,WUHU216HW,2013-02-22 23:00:00,
2013-02-22 18:03:00,38.3,29.8,30.45,ESE,113,0.4,2.5,71,0.00,,,0.00,WUHU216HW,2013-02-22 23:03:00,
2013-02-22 18:08:00,38.3,29.8,30.45,ESE,113,0.4,0.4,71,0.00,,,0.00,WUHU216HW,2013-02-22 23:08:00,
2013-02-22 18:30:00,38.2,30.0,30.44,ENE,68,0.0,0.0,72,0.00,,,0.00,WUHU216HW,2013-02-22 23:30:00,
2013-02-22 18:35:00,38.2,30.0,30.44,ENE,68,0.4,0.9,72,0.00,,,0.00,WUHU216HW,2013-02-22 23:35:00,
2013-02-22 18:40:00,38.2,30.2,30.44,SSE,158,0.9,2.9,73,0.00,,,0.00,WUHU216HW,2013-02-22 23:40:00,
2013-02-22 18:45:00,38.2,30.2,30.44,SSE,158,0.9,2.9,73,0.00,,,0.00,WUHU216HW,2013-02-22 23:45:00,
2013-02-22 19:00:00,38.2,30.2,30.44,SE,135,1.1,1.1,73,0.00,,,0.00,WUHU216HW,2013-02-23 00:00:00,
2013-02-22 19:05:00,38.2,30.6,30.44,ESE,113,1.6,1.6,74,0.00,,,0.00,WUHU216HW,2013-02-23 00:05:00,
2013-02-22 19:10:00,38.2,30.6,30.44,SSE,158,0.4,1.6,74,0.00,,,0.00,WUHU216HW,2013-02-23 00:10:00,
2013-02-22 19:15:00,38.2,30.6,30.43,ESE,113,0.4,2.0,74,0.00,,,0.00,WUHU216HW,2013-02-23 00:15:00,
2013-02-22 19:20:00,38.3,30.8,30.44,East,90,1.6,2.0,74,0.00,,,0.00,WUHU216HW,2013-02-23 00:20:00,
2013-02-22 19:25:00,38.3,30.8,30.44,East,90,0.4,1.8,74,0.00,,,0.00,WUHU216HW,2013-02-23 00:25:00,
2013-02-22 19:30:00,38.3,30.8,30.44,SE,135,1.1,1.6,74,0.00,,,0.00,WUHU216HW,2013-02-23 00:30:00,
2013-02-22 19:35:00,38.5,31.2,30.45,East,90,0.0,1.1,75,0.00,,,0.00,WUHU216HW,2013-02-23 00:35:00,
2013-02-22 19:40:00,38.5,31.2,30.44,ESE,113,0.2,0.9,75,0.00,,,0.00,WUHU216HW,2013-02-23 00:40:00,
2013-02-22 19:45:00,38.5,31.2,30.44,ESE,113,1.1,1.1,75,0.00,,,0.00,WUHU216HW,2013-02-23 00:45:00,
2013-02-22 19:50:00,38.7,31.4,30.44,SSE,158,0.7,1.1,75,0.00,,,0.00,WUHU216HW,2013-02-23 00:50:00,
2013-02-22 19:55:00,38.7,31.4,30.45,ENE,68,0.0,1.1,75,0.00,,,0.00,WUHU216HW,2013-02-23 00:55:00,
2013-02-22 20:00:00,38.9,31.6,30.45,ESE,113,0.2,0.9,75,0.00,,,0.00,WUHU216HW,2013-02-23 01:00:00,
2013-02-22 20:05:00,38.9,31.6,30.44,ESE,113,0.2,1.6,75,0.00,,,0.00,WUHU216HW,2013-02-23 01:05:00,
2013-02-22 20:10:00,38.9,31.6,30.44,ESE,113,1.6,1.6,75,0.00,,,0.00,WUHU216HW,2013-02-23 01:10:00,
2013-02-22 20:15:00,39.1,32.1,30.44,SE,135,1.6,1.6,76,0.00,,,0.00,WUHU216HW,2013-02-23 01:15:00,
2013-02-22 20:20:00,39.1,32.1,30.44,ESE,113,0.0,2.0,76,0.00,,,0.00,WUHU216HW,2013-02-23 01:20:00,
2013-02-22 20:25:00,39.1,32.1,30.45,East,90,0.4,2.0,76,0.00,,,0.00,WUHU216HW,2013-02-23 01:25:00,
2013-02-22 20:30:00,39.2,32.3,30.44,ESE,113,0.4,1.1,76,0.00,,,0.00,WUHU216HW,2013-02-23 01:30:00,
2013-02-22 20:35:00,39.2,32.3,30.44,SE,135,0.9,1.1,76,0.00,,,0.00,WUHU216HW,2013-02-23 01:35:00,
2013-02-22 20:40:00,39.2,32.3,30.43,ESE,113,0.7,1.1,76,0.00,,,0.00,WUHU216HW,2013-02-23 01:40:00,
2013-02-22 20:45:00,39.2,32.3,30.43,East,90,1.1,1.6,76,0.00,,,0.00,WUHU216HW,2013-02-23 01:45:00,
2013-02-22 20:50:00,39.2,32.3,30.43,ESE,113,0.7,1.6,76,0.00,,,0.00,WUHU216HW,2013-02-23 01:50:00,
2013-02-22 20:55:00,39.2,32.3,30.43,SE,135,2.5,2.5,76,0.00,,,0.00,WUHU216HW,2013-02-23 01:55:00,
2013-02-22 21:00:00,39.4,32.5,30.43,ESE,113,0.4,2.5,76,0.00,,,0.00,WUHU216HW,2013-02-23 02:00:00,
2013-02-22 21:05:00,39.4,32.8,30.43,SSE,158,0.7,1.1,77,0.00,,,0.00,WUHU216HW,2013-02-23 02:05:00,
2013-02-22 21:10:00,39.4,32.8,30.43,SE,135,0.9,1.1,77,0.00,,,0.00,WUHU216HW,2013-02-23 02:10:00,
2013-02-22 21:15:00,39.4,32.8,30.43,ESE,113,1.3,1.3,77,0.00,,,0.00,WUHU216HW,2013-02-23 02:15:00,
2013-02-22 21:20:00,39.6,32.9,30.42,ENE,68,0.2,1.3,77,0.00,,,0.00,WUHU216HW,2013-02-23 02:20:00,
2013-02-22 21:25:00,39.6,32.9,30.42,ESE,113,0.0,0.9,77,0.00,,,0.00,WUHU216HW,2013-02-23 02:25:00,
2013-02-22 21:30:00,39.6,32.9,30.42,ESE,113,0.0,0.7,77,0.00,,,0.00,WUHU216HW,2013-02-23 02:30:00,
2013-02-22 21:35:00,39.6,32.9,30.42,ESE,113,0.4,1.1,77,0.00,,,0.00,WUHU216HW,2013-02-23 02:35:00,
2013-02-22 21:40:00,39.6,32.9,30.41,SE,135,0.0,1.1,77,0.00,,,0.00,WUHU216HW,2013-02-23 02:40:00,
2013-02-22 21:45:00,39.6,32.9,30.41,SE,135,0.9,0.9,77,0.00,,,0.00,WUHU216HW,2013-02-23 02:45:00,
2013-02-22 21:50:00,39.6,32.9,30.41,ESE,113,0.0,0.9,77,0.00,,,0.00,WUHU216HW,2013-02-23 02:50:00,
2013-02-22 21:55:00,39.8,33.1,30.41,East,90,0.4,0.9,77,0.00,,,0.00,WUHU216HW,2013-02-23 02:55:00,
2013-02-22 22:00:00,39.8,33.1,30.41,East,90,0.0,0.9,77,0.00,,,0.00,WUHU216HW,2013-02-23 03:00:00,
2013-02-22 22:05:00,39.8,33.5,30.41,East,90,0.2,1.3,78,0.00,,,0.00,WUHU216HW,2013-02-23 03:05:00,
2013-02-22 22:10:00,39.8,33.5,30.41,East,90,0.0,1.3,78,0.00,,,0.00,WUHU216HW,2013-02-23 03:10:00,
2013-02-22 22:15:00,39.8,33.5,30.41,East,90,0.0,0.0,78,0.00,,,0.00,WUHU216HW,2013-02-23 03:15:00,
2013-02-22 22:20:00,40.0,33.7,30.40,East,90,0.0,0.4,78,0.00,,,0.00,WUHU216HW,2013-02-23 03:20:00,
2013-02-22 22:25:00,40.0,33.7,30.41,East,90,0.0,0.4,78,0.00,,,0.00,WUHU216HW,2013-02-23 03:25:00,
2013-02-22 22:30:00,40.0,33.7,30.40,East,90,0.0,0.0,78,0.00,,,0.00,WUHU216HW,2013-02-23 03:30:00,
2013-02-22 22:35:00,40.0,33.7,30.41,East,90,0.0,0.0,78,0.00,,,0.00,WUHU216HW,2013-02-23 03:35:00,
2013-02-22 22:40:00,40.0,33.7,30.41,East,90,0.0,0.0,78,0.00,,,0.00,WUHU216HW,2013-02-23 03:40:00,
2013-02-22 22:45:00,40.0,33.9,30.41,East,90,0.0,0.0,79,0.00,,,0.00,WUHU216HW,2013-02-23 03:45:00,
2013-02-22 22:50:00,40.0,33.9,30.40,East,90,0.0,0.0,79,0.00,,,0.00,WUHU216HW,2013-02-23 03:50:00,
2013-02-22 22:55:00,40.0,33.9,30.40,East,90,0.0,0.0,79,0.00,,,0.00,WUHU216HW,2013-02-23 03:55:00,
2013-02-22 23:00:00,40.0,33.9,30.40,ESE,113,0.4,0.9,79,0.00,,,0.00,WUHU216HW,2013-02-23 04:00:00,
2013-02-22 23:05:00,40.0,33.9,30.40,ESE,113,0.0,0.9,79,0.00,,,0.00,WUHU216HW,2013-02-23 04:05:00,
2013-02-22 23:10:00,39.8,33.9,30.40,ESE,113,0.0,0.0,79,0.00,,,0.00,WUHU216HW,2013-02-23 04:10:00,
2013-02-22 23:15:00,39.8,33.9,30.39,ESE,113,0.0,0.0,79,0.00,,,0.00,WUHU216HW,2013-02-23 04:15:00,
2013-02-22 23:20:00,39.8,33.9,30.39,ESE,113,0.0,0.0,79,0.00,,,0.00,WUHU216HW,2013-02-23 04:20:00,
2013-02-22 23:25:00,39.8,33.9,30.38,ESE,113,0.0,0.0,79,0.00,,,0.00,WUHU216HW,2013-02-23 04:25:00,
2013-02-22 23:30:00,39.8,33.9,30.38,ESE,113,0.0,0.0,79,0.00,,,0.00,WUHU216HW,2013-02-23 04:30:00,
2013-02-22 23:35:00,39.8,33.9,30.38,SE,135,0.2,0.9,79,0.00,,,0.00,WUHU216HW,2013-02-23 04:35:00,
2013-02-22 23:40:00,39.8,33.9,30.38,SE,135,0.0,0.9,79,0.00,,,0.00,WUHU216HW,2013-02-23 04:40:00,
2013-02-22 23:45:00,39.8,34.1,30.38,SE,135,0.7,0.7,80,0.00,,,0.00,WUHU216HW,2013-02-23 04:45:00,
2013-02-22 23:50:00,39.8,34.1,30.38,SE,135,0.0,1.1,80,0.00,,,0.00,WUHU216HW,2013-02-23 04:50:00,
2013-02-22 23:55:00,39.8,34.1,30.39,SE,135,0.0,1.8,80,0.00,,,0.00,WUHU216HW,2013-02-23 04:55:00,